createdAt,value
2018-09-23T00:00:44.526Z,66.97
2018-09-23T00:03:13.130Z,67.05
2018-09-23T00:05:41.766Z,66.46
2018-09-23T00:08:10.326Z,66.86
2018-09-23T00:10:39.002Z,67.44
2018-09-23T00:13:07.781Z,67.57
2018-09-23T00:15:36.414Z,68.18
2018-09-23T00:18:04.958Z,68.65
2018-09-23T00:20:33.705Z,69.04
2018-09-23T00:23:03.778Z,69.61
2018-09-23T00:25:32.672Z,69.77
2018-09-23T00:28:01.266Z,70.24
2018-09-23T00:30:29.826Z,69.65
2018-09-23T00:32:58.362Z,69.61
2018-09-23T00:35:26.886Z,69.33
2018-09-23T00:37:55.684Z,68.83
2018-09-23T00:40:24.214Z,69.23
2018-09-23T00:42:52.982Z,69.04
2018-09-23T00:45:21.466Z,68.63
2018-09-23T00:47:50.010Z,69.41
2018-09-23T00:50:18.639Z,70.06
2018-09-23T00:52:47.162Z,69.40
2018-09-23T00:55:15.804Z,68.85
2018-09-23T00:57:44.286Z,67.83
2018-09-23T01:00:12.918Z,67.96
2018-09-23T01:02:41.382Z,68.00
2018-09-23T01:05:10.065Z,68.26
2018-09-23T01:07:39.893Z,66.40
2018-09-23T01:10:08.679Z,63.49
2018-09-23T01:12:37.227Z,64.02
2018-09-23T01:15:06.170Z,65.42
2018-09-23T01:17:34.838Z,65.61
2018-09-23T01:20:03.998Z,67.19
2018-09-23T01:22:32.674Z,67.94
2018-09-23T01:25:01.291Z,67.74
2018-09-23T01:27:29.993Z,67.73
2018-09-23T01:29:58.646Z,67.13
2018-09-23T01:32:27.166Z,67.52
2018-09-23T01:34:55.734Z,68.38
2018-09-23T01:37:24.286Z,68.72
2018-09-23T01:39:52.958Z,68.23
2018-09-23T01:42:21.484Z,67.56
2018-09-23T01:44:50.658Z,68.12
2018-09-23T01:47:19.147Z,67.57
2018-09-23T01:49:47.743Z,67.77
2018-09-23T01:52:16.263Z,68.03
2018-09-23T01:54:44.786Z,68.43
2018-09-23T01:57:13.422Z,69.35
2018-09-23T01:59:42.030Z,69.69
2018-09-23T02:02:10.717Z,68.92
2018-09-23T02:04:39.281Z,68.52
2018-09-23T02:07:07.822Z,68.11
2018-09-23T02:09:36.286Z,69.03
2018-09-23T02:12:04.786Z,67.21
2018-09-23T02:14:33.647Z,67.43
2018-09-23T02:17:02.245Z,68.10
2018-09-23T02:19:30.950Z,68.60
2018-09-23T02:21:59.418Z,67.59
2018-09-23T02:24:28.010Z,68.49
2018-09-23T02:26:56.543Z,69.25
2018-09-23T02:29:25.001Z,68.49
2018-09-23T02:31:53.709Z,66.87
2018-09-23T02:34:22.198Z,66.53
2018-09-23T02:36:50.839Z,66.31
2018-09-23T02:39:19.458Z,66.00
2018-09-23T02:41:48.152Z,66.39
2018-09-23T02:44:16.739Z,67.20
2018-09-23T02:46:45.408Z,67.31
2018-09-23T02:49:13.960Z,67.64
2018-09-23T02:51:42.471Z,68.07
2018-09-23T02:54:11.058Z,68.67
2018-09-23T02:56:39.586Z,68.99
2018-09-23T02:59:09.042Z,68.79
2018-09-23T03:01:37.509Z,69.40
2018-09-23T03:04:06.134Z,68.09
2018-09-23T03:06:34.582Z,67.31
2018-09-23T03:09:03.522Z,67.77
2018-09-23T03:11:32.494Z,67.76
2018-09-23T03:14:00.965Z,67.43
2018-09-23T03:16:29.890Z,68.22
2018-09-23T03:18:58.598Z,68.72
2018-09-23T03:21:27.254Z,69.21
2018-09-23T03:23:55.896Z,69.51
2018-09-23T03:26:24.492Z,69.85
2018-09-23T03:28:52.978Z,70.00
2018-09-23T03:31:21.550Z,69.56
2018-09-23T03:33:50.210Z,69.11
2018-09-23T03:36:18.708Z,68.82
2018-09-23T03:38:47.462Z,69.17
2018-09-23T03:41:16.202Z,69.39
2018-09-23T03:43:44.808Z,69.19
2018-09-23T03:46:13.370Z,69.60
2018-09-23T03:48:42.070Z,69.51
2018-09-23T03:51:10.667Z,69.67
2018-09-23T03:53:39.111Z,69.51
2018-09-23T03:56:07.882Z,68.64
2018-09-23T03:58:36.354Z,67.97
2018-09-23T04:01:04.923Z,68.35
2018-09-23T04:03:33.506Z,68.49
2018-09-23T04:06:02.004Z,68.50
2018-09-23T04:08:30.638Z,68.64
2018-09-23T04:10:59.175Z,68.61
2018-09-23T04:13:27.931Z,68.17
2018-09-23T04:15:56.562Z,67.44
2018-09-23T04:18:26.141Z,67.39
2018-09-23T04:20:54.628Z,67.48
2018-09-23T04:23:23.242Z,67.81
2018-09-23T04:25:51.818Z,68.65
2018-09-23T04:28:20.400Z,69.05
2018-09-23T04:30:49.104Z,69.46
2018-09-23T04:33:17.618Z,70.38
2018-09-23T04:35:46.254Z,70.75
2018-09-23T04:38:14.811Z,69.59
2018-09-23T04:40:43.356Z,68.90
2018-09-23T04:43:11.983Z,68.79
2018-09-23T04:45:40.463Z,69.01
2018-09-23T04:48:09.849Z,69.39
2018-09-23T04:50:38.350Z,70.57
2018-09-23T04:53:07.029Z,69.45
2018-09-23T04:55:35.550Z,69.56
2018-09-23T04:58:04.116Z,69.62
2018-09-23T05:00:32.602Z,70.14
2018-09-23T05:03:01.099Z,69.89
2018-09-23T05:05:30.518Z,69.75
2018-09-23T05:07:59.075Z,69.88
2018-09-23T05:10:27.887Z,69.27
2018-09-23T05:12:56.496Z,69.51
2018-09-23T05:15:25.198Z,69.45
2018-09-23T05:17:53.770Z,70.31
2018-09-23T05:20:22.234Z,70.62
2018-09-23T05:22:50.735Z,70.54
2018-09-23T05:25:19.258Z,70.52
2018-09-23T05:27:48.022Z,70.56
2018-09-23T05:30:16.583Z,70.80
2018-09-23T05:32:45.437Z,70.69
2018-09-23T05:35:14.009Z,70.53
2018-09-23T05:37:42.591Z,70.77
2018-09-23T05:40:11.214Z,70.51
2018-09-23T05:42:39.812Z,70.84
2018-09-23T05:45:09.355Z,70.05
2018-09-23T05:47:37.813Z,69.57
2018-09-23T05:50:06.970Z,69.27
2018-09-23T05:52:35.414Z,69.37
2018-09-23T05:55:04.354Z,70.12
2018-09-23T05:57:32.947Z,70.17
2018-09-23T06:00:01.587Z,70.11
2018-09-23T06:02:30.216Z,70.10
2018-09-23T06:04:58.805Z,70.40
2018-09-23T06:07:27.538Z,71.25
2018-09-23T06:09:56.077Z,71.71
2018-09-23T06:12:24.929Z,72.04
2018-09-23T06:14:53.430Z,71.82
2018-09-23T06:17:21.946Z,71.51
2018-09-23T06:19:50.638Z,70.50
2018-09-23T06:22:19.122Z,70.23
2018-09-23T06:24:47.758Z,68.78
2018-09-23T06:27:16.306Z,68.55
2018-09-23T06:29:44.999Z,69.45
2018-09-23T06:32:13.621Z,69.82
2018-09-23T06:34:42.237Z,69.51
2018-09-23T06:37:10.830Z,69.57
2018-09-23T06:39:39.290Z,69.32
2018-09-23T06:42:08.067Z,69.89
2018-09-23T06:44:36.737Z,69.71
2018-09-23T06:47:05.518Z,69.81
2018-09-23T06:49:34.089Z,69.85
2018-09-23T06:52:02.763Z,68.80
2018-09-23T06:54:31.287Z,68.75
2018-09-23T06:57:00.060Z,69.01
2018-09-23T06:59:28.546Z,69.68
2018-09-23T07:01:56.985Z,69.51
2018-09-23T07:04:25.661Z,69.23
2018-09-23T07:06:54.118Z,69.40
2018-09-23T07:09:22.777Z,69.35
2018-09-23T07:11:51.371Z,68.83
2018-09-23T07:14:20.003Z,67.88
2018-09-23T07:16:48.483Z,67.98
2018-09-23T07:19:17.066Z,67.77
2018-09-23T07:21:45.733Z,67.54
2018-09-23T07:24:14.442Z,68.11
2018-09-23T07:26:43.064Z,67.99
2018-09-23T07:29:11.550Z,68.34
2018-09-23T07:31:40.078Z,68.66
2018-09-23T07:34:08.808Z,68.35
2018-09-23T07:36:37.322Z,67.89
2018-09-23T07:39:07.326Z,68.18
2018-09-23T07:41:36.530Z,67.78
2018-09-23T07:44:05.334Z,67.89
2018-09-23T07:46:33.812Z,67.13
2018-09-23T07:49:02.660Z,67.94
2018-09-23T07:51:31.125Z,67.60
2018-09-23T07:53:59.798Z,66.84
2018-09-23T07:56:28.420Z,67.03
2018-09-23T07:58:56.892Z,67.29
2018-09-23T08:01:25.537Z,67.82
2018-09-23T08:03:54.151Z,67.27
2018-09-23T08:06:22.723Z,67.50
2018-09-23T08:08:51.198Z,67.66
2018-09-23T08:11:19.848Z,67.64
2018-09-23T08:13:48.532Z,66.76
2018-09-23T08:16:16.902Z,67.58
2018-09-23T08:18:45.734Z,67.37
2018-09-23T08:21:14.420Z,67.02
2018-09-23T08:23:43.007Z,67.25
2018-09-23T08:26:11.536Z,67.32
2018-09-23T08:28:40.111Z,66.65
2018-09-23T08:31:08.702Z,65.82
2018-09-23T08:33:37.334Z,66.15
2018-09-23T08:36:06.037Z,65.92
2018-09-23T08:38:34.518Z,65.59
2018-09-23T08:41:03.252Z,65.40
2018-09-23T08:43:31.742Z,65.31
2018-09-23T08:46:00.250Z,63.63
2018-09-23T08:48:28.828Z,64.36
2018-09-23T08:50:57.486Z,64.64
2018-09-23T08:53:26.189Z,65.61
2018-09-23T08:55:54.817Z,65.51
2018-09-23T08:58:23.722Z,64.44
2018-09-23T09:00:52.190Z,64.73
2018-09-23T09:03:20.929Z,65.27
2018-09-23T09:05:49.454Z,65.47
2018-09-23T09:08:18.051Z,64.20
2018-09-23T09:10:46.714Z,64.39
2018-09-23T09:13:15.193Z,64.13
2018-09-23T09:15:43.898Z,63.89
2018-09-23T09:18:12.450Z,63.48
2018-09-23T09:20:41.379Z,62.98
2018-09-23T09:23:10.176Z,63.73
2018-09-23T09:25:38.782Z,64.25
2018-09-23T09:28:07.410Z,64.18
2018-09-23T09:30:35.878Z,64.12
2018-09-23T09:33:04.622Z,62.41
2018-09-23T09:35:33.112Z,62.54
2018-09-23T09:38:01.955Z,60.87
2018-09-23T09:40:30.503Z,63.03
2018-09-23T09:42:59.065Z,62.42
2018-09-23T09:45:27.900Z,62.33
2018-09-23T09:47:56.722Z,62.72
2018-09-23T09:50:25.987Z,62.55
2018-09-23T09:52:54.442Z,62.82
2018-09-23T09:55:23.148Z,62.09
2018-09-23T09:57:51.627Z,61.85
2018-09-23T10:00:25.438Z,61.10
2018-09-23T10:02:54.038Z,61.38
2018-09-23T10:05:22.602Z,60.58
2018-09-23T10:07:51.478Z,60.20
2018-09-23T10:10:20.500Z,61.33
2018-09-23T10:12:49.069Z,62.76
2018-09-23T10:15:17.680Z,61.70
2018-09-23T10:17:46.474Z,63.07
2018-09-23T10:20:15.223Z,61.40
2018-09-23T10:22:43.893Z,62.21
2018-09-23T10:25:12.326Z,63.11
2018-09-23T10:27:40.985Z,62.11
2018-09-23T10:30:10.347Z,62.04
2018-09-23T10:32:39.294Z,62.15
2018-09-23T10:35:08.151Z,60.53
2018-09-23T10:37:37.398Z,61.17
2018-09-23T10:40:06.871Z,61.71
2018-09-23T10:42:35.698Z,60.84
2018-09-23T10:45:04.521Z,59.47
2018-09-23T10:47:33.103Z,59.39
2018-09-23T10:50:01.615Z,60.03
2018-09-23T10:52:30.177Z,61.00
2018-09-23T10:54:58.860Z,60.57
2018-09-23T10:57:27.452Z,61.38
2018-09-23T10:59:56.957Z,60.18
2018-09-23T11:02:25.410Z,60.25
2018-09-23T11:04:54.037Z,60.51
2018-09-23T11:07:22.656Z,60.75
2018-09-23T11:09:51.491Z,61.16
2018-09-23T11:12:19.974Z,60.21
2018-09-23T11:14:48.561Z,60.48
2018-09-23T11:17:17.587Z,61.23
2018-09-23T11:19:46.070Z,61.17
2018-09-23T11:22:15.510Z,61.33
2018-09-23T11:24:44.182Z,60.72
2018-09-23T11:27:12.884Z,59.77
2018-09-23T11:29:41.602Z,60.54
2018-09-23T11:32:10.074Z,60.91
2018-09-23T11:34:38.663Z,59.23
2018-09-23T11:37:07.300Z,59.51
2018-09-23T11:39:36.254Z,60.61
2018-09-23T11:42:04.816Z,59.73
2018-09-23T11:44:33.889Z,60.45
2018-09-23T11:47:02.374Z,60.17
2018-09-23T11:49:30.926Z,60.85
2018-09-23T11:51:59.470Z,60.62
2018-09-23T11:54:28.047Z,61.93
2018-09-23T11:56:56.698Z,60.32
2018-09-23T11:59:25.250Z,60.69
2018-09-23T12:01:55.623Z,59.78
2018-09-23T12:04:24.154Z,59.61
2018-09-23T12:06:52.919Z,59.96
2018-09-23T12:09:21.387Z,59.75
2018-09-23T12:11:49.900Z,59.50
2018-09-23T12:14:18.596Z,60.27
2018-09-23T12:16:47.075Z,60.33
2018-09-23T12:19:15.782Z,60.33
2018-09-23T12:21:44.309Z,61.27
2018-09-23T12:24:13.112Z,59.27
2018-09-23T12:26:41.578Z,58.22
2018-09-23T12:29:10.576Z,59.33
2018-09-23T12:31:39.234Z,59.07
2018-09-23T12:34:07.734Z,59.58
2018-09-23T12:36:36.305Z,59.53
2018-09-23T12:39:07.358Z,59.59
2018-09-23T12:41:35.850Z,59.50
2018-09-23T12:44:04.371Z,59.04
2018-09-23T12:46:33.422Z,58.05
2018-09-23T12:49:02.180Z,58.98
2018-09-23T12:51:30.938Z,59.53
2018-09-23T12:53:59.586Z,60.76
2018-09-23T12:56:28.098Z,60.31
2018-09-23T12:58:57.310Z,59.92
2018-09-23T13:01:25.814Z,60.68
2018-09-23T13:03:54.307Z,60.02
2018-09-23T13:06:22.978Z,60.23
2018-09-23T13:08:51.773Z,58.99
2018-09-23T13:11:20.270Z,58.69
2018-09-23T13:13:49.766Z,60.07
2018-09-23T13:16:18.227Z,59.03
2018-09-23T13:18:46.853Z,60.38
2018-09-23T13:21:15.450Z,59.79
2018-09-23T13:23:44.013Z,60.21
2018-09-23T13:26:12.767Z,59.64
2018-09-23T13:28:41.280Z,59.64
2018-09-23T13:31:10.184Z,61.29
2018-09-23T13:33:38.854Z,60.10
2018-09-23T13:36:07.519Z,60.52
2018-09-23T13:38:35.991Z,58.93
2018-09-23T13:41:04.482Z,59.49
2018-09-23T13:43:33.270Z,59.35
2018-09-23T13:46:01.839Z,59.30
2018-09-23T13:48:30.894Z,57.26
2018-09-23T13:50:59.470Z,56.92
2018-09-23T13:53:28.620Z,57.85
2018-09-23T13:55:57.196Z,57.36
2018-09-23T13:58:25.870Z,57.45
2018-09-23T14:00:54.359Z,58.45
2018-09-23T14:03:22.839Z,57.43
2018-09-23T14:05:51.817Z,57.59
2018-09-23T14:08:20.308Z,57.00
2018-09-23T14:10:50.568Z,55.60
2018-09-23T14:13:19.058Z,56.16
2018-09-23T14:15:47.735Z,55.96
2018-09-23T14:18:16.286Z,56.90
2018-09-23T14:20:44.794Z,56.68
2018-09-23T14:23:13.262Z,56.34
2018-09-23T14:25:41.786Z,56.06
2018-09-23T14:28:10.453Z,56.66
2018-09-23T14:30:39.245Z,56.43
2018-09-23T14:33:08.076Z,57.53
2018-09-23T14:35:36.773Z,56.70
2018-09-23T14:38:05.372Z,55.72
2018-09-23T14:40:33.898Z,55.68
2018-09-23T14:43:02.419Z,56.23
2018-09-23T14:45:31.109Z,57.03
2018-09-23T14:47:59.622Z,56.92
2018-09-23T14:50:28.422Z,55.21
2018-09-23T14:52:57.055Z,56.89
2018-09-23T14:55:25.907Z,56.10
2018-09-23T14:57:54.428Z,57.39
2018-09-23T15:00:22.949Z,57.08
2018-09-23T15:02:51.590Z,55.58
2018-09-23T15:05:20.279Z,56.96
2018-09-23T15:07:49.131Z,57.70
2018-09-23T15:10:17.595Z,58.17
2018-09-23T15:12:46.229Z,57.43
2018-09-23T15:15:14.817Z,57.84
2018-09-23T15:17:43.430Z,57.58
2018-09-23T15:20:12.978Z,58.63
2018-09-23T15:22:41.522Z,58.38
2018-09-23T15:25:10.154Z,58.33
2018-09-23T15:27:38.757Z,58.51
2018-09-23T15:30:07.542Z,57.38
2018-09-23T15:32:36.040Z,57.80
2018-09-23T15:35:04.714Z,57.99
2018-09-23T15:37:33.229Z,57.34
2018-09-23T15:40:01.831Z,57.03
2018-09-23T15:42:30.627Z,57.37
2018-09-23T15:44:59.244Z,56.43
2018-09-23T15:47:27.966Z,56.82
2018-09-23T15:49:56.506Z,56.08
2018-09-23T15:52:25.332Z,56.28
2018-09-23T15:54:53.877Z,56.21
2018-09-23T15:57:22.534Z,56.25
2018-09-23T15:59:51.014Z,55.54
2018-09-23T16:02:19.523Z,55.63
2018-09-23T16:04:48.420Z,56.19
2018-09-23T16:07:16.902Z,56.68
2018-09-23T16:09:45.805Z,56.68
2018-09-23T16:12:14.414Z,55.93
2018-09-23T16:14:43.060Z,57.34
2018-09-23T16:17:11.532Z,57.29
2018-09-23T16:19:40.055Z,56.99
2018-09-23T16:22:08.662Z,55.77
2018-09-23T16:24:37.118Z,57.93
2018-09-23T16:27:05.917Z,57.64
2018-09-23T16:29:34.462Z,58.32
2018-09-23T16:32:03.286Z,57.50
2018-09-23T16:34:31.738Z,58.34
2018-09-23T16:37:00.406Z,59.32
2018-09-23T16:39:29.254Z,56.69
2018-09-23T16:41:57.882Z,58.19
2018-09-23T16:44:26.871Z,57.77
2018-09-23T16:46:55.340Z,56.63
2018-09-23T16:49:24.375Z,58.57
2018-09-23T16:51:52.847Z,58.66
2018-09-23T16:54:21.433Z,58.44
2018-09-23T16:56:50.046Z,57.56
2018-09-23T16:59:18.507Z,56.94
2018-09-23T17:01:47.406Z,57.67
2018-09-23T17:04:15.990Z,58.64
2018-09-23T17:06:44.974Z,58.38
2018-09-23T17:09:13.438Z,59.40
2018-09-23T17:11:42.204Z,59.35
2018-09-23T17:14:10.714Z,59.62
2018-09-23T17:16:39.308Z,59.99
2018-09-23T17:19:08.108Z,60.23
2018-09-23T17:21:36.650Z,60.67
2018-09-23T17:24:05.682Z,60.82
2018-09-23T17:26:34.382Z,60.46
2018-09-23T17:29:03.146Z,61.08
2018-09-23T17:31:31.879Z,61.16
2018-09-23T17:34:00.460Z,61.66
2018-09-23T17:36:28.957Z,61.92
2018-09-23T17:38:57.442Z,62.40
2018-09-23T17:41:26.493Z,62.70
2018-09-23T17:43:55.022Z,62.53
2018-09-23T17:46:24.960Z,62.54
2018-09-23T17:48:53.511Z,62.45
2018-09-23T17:51:22.417Z,62.76
2018-09-23T17:53:50.902Z,63.19
2018-09-23T17:56:19.597Z,63.54
2018-09-23T17:58:48.352Z,63.68
2018-09-23T18:01:16.935Z,64.06
2018-09-23T18:03:45.678Z,64.65
2018-09-23T18:06:14.203Z,64.68
2018-09-23T18:08:42.906Z,64.93
2018-09-23T18:11:11.639Z,64.92
2018-09-23T18:13:40.278Z,64.83
2018-09-23T18:16:09.097Z,65.05
2018-09-23T18:18:37.655Z,65.28
2018-09-23T18:21:06.995Z,66.08
2018-09-23T18:23:35.512Z,66.68
2018-09-23T18:26:04.527Z,66.43
2018-09-23T18:28:33.095Z,67.33
2018-09-23T18:31:01.990Z,67.14
2018-09-23T18:33:30.615Z,68.06
2018-09-23T18:35:59.196Z,68.26
2018-09-23T18:38:27.728Z,68.31
2018-09-23T18:40:57.019Z,68.69
2018-09-23T18:43:25.530Z,68.79
2018-09-23T18:45:54.058Z,69.07
2018-09-23T18:48:22.750Z,69.22
2018-09-23T18:50:51.359Z,69.91
2018-09-23T18:53:24.204Z,69.52
2018-09-23T18:55:53.790Z,70.09
2018-09-23T18:58:22.461Z,69.93
2018-09-23T19:00:51.138Z,70.14
2018-09-23T19:03:20.035Z,70.93
2018-09-23T19:05:48.503Z,70.80
2018-09-23T19:08:17.178Z,71.87
2018-09-23T19:10:45.670Z,71.72
2018-09-23T19:13:19.519Z,71.79
2018-09-23T19:15:52.458Z,73.16
2018-09-23T19:18:21.034Z,72.63
2018-09-23T19:20:49.785Z,72.55
2018-09-23T19:23:18.315Z,73.67
2018-09-23T19:25:46.980Z,73.83
2018-09-23T19:28:15.666Z,73.34
2018-09-23T19:30:44.165Z,73.24
2018-09-23T19:33:12.815Z,74.21
2018-09-23T19:35:41.414Z,74.70
2018-09-23T19:38:09.934Z,73.61
2018-09-23T19:40:38.568Z,73.51
2018-09-23T19:43:07.040Z,74.09
2018-09-23T19:45:35.702Z,74.17
2018-09-23T19:48:04.300Z,74.01
2018-09-23T19:50:33.212Z,74.11
2018-09-23T19:53:01.663Z,74.40
2018-09-23T19:55:30.239Z,74.16
2018-09-23T19:57:58.729Z,75.85
2018-09-23T20:00:27.211Z,73.16
2018-09-23T20:02:55.762Z,70.26
2018-09-23T20:05:24.306Z,68.75
2018-09-23T20:07:52.970Z,71.86
2018-09-23T20:10:21.761Z,74.21
2018-09-23T20:12:50.593Z,74.55
2018-09-23T20:15:19.457Z,73.85
2018-09-23T20:17:48.661Z,74.11
2018-09-23T20:20:17.141Z,75.18
2018-09-23T20:22:45.591Z,76.61
2018-09-23T20:25:14.363Z,76.25
2018-09-23T20:27:42.822Z,77.36
2018-09-23T20:30:11.758Z,77.58
2018-09-23T20:32:40.237Z,77.62
2018-09-23T20:35:09.046Z,77.75
2018-09-23T20:37:38.574Z,77.38
2018-09-23T20:40:07.431Z,78.70
2018-09-23T20:42:36.020Z,79.19
2018-09-23T20:45:04.860Z,81.91
2018-09-23T20:47:34.515Z,80.32
2018-09-23T20:50:03.098Z,80.11
2018-09-23T20:52:31.988Z,80.46
2018-09-23T20:55:00.619Z,82.14
2018-09-23T20:57:29.406Z,83.11
2018-09-23T20:59:58.978Z,81.87
2018-09-23T21:02:27.859Z,80.33
2018-09-23T21:04:56.342Z,79.08
2018-09-23T21:07:25.058Z,78.54
2018-09-23T21:09:53.773Z,79.65
2018-09-23T21:12:22.240Z,77.22
2018-09-23T21:14:51.082Z,72.40
2018-09-23T21:17:19.634Z,64.82
2018-09-23T21:19:48.335Z,69.38
2018-09-23T21:22:16.931Z,71.90
2018-09-23T21:24:45.579Z,74.28
2018-09-23T21:27:14.202Z,76.05
2018-09-23T21:29:42.678Z,77.98
2018-09-23T21:32:11.566Z,78.33
2018-09-23T21:34:40.258Z,79.06
2018-09-23T21:37:09.119Z,79.19
2018-09-23T21:39:37.632Z,80.50
2018-09-23T21:42:06.302Z,80.94
2018-09-23T21:44:34.794Z,81.47
2018-09-23T21:47:03.354Z,82.41
2018-09-23T21:49:32.076Z,81.81
2018-09-23T21:52:00.650Z,81.57
2018-09-23T21:54:29.529Z,81.32
2018-09-23T21:56:58.113Z,81.81
2018-09-23T21:59:26.851Z,82.28
2018-09-23T22:01:55.458Z,82.51
2018-09-23T22:04:24.054Z,82.18
2018-09-23T22:06:53.165Z,81.90
2018-09-23T22:09:21.807Z,81.93
2018-09-23T22:11:50.434Z,81.80
2018-09-23T22:14:18.938Z,82.08
2018-09-23T22:16:47.826Z,82.03
2018-09-23T22:19:16.383Z,81.86
2018-09-23T22:21:44.992Z,82.01
2018-09-23T22:24:13.650Z,81.94
2018-09-23T22:26:42.150Z,82.47
2018-09-23T22:29:10.811Z,83.10
2018-09-23T22:31:39.334Z,82.18
2018-09-23T22:34:08.290Z,82.62
2018-09-23T22:36:36.734Z,82.00
2018-09-23T22:39:07.164Z,82.74
2018-09-23T22:41:35.638Z,83.32
2018-09-23T22:44:04.222Z,83.38
2018-09-23T22:46:32.805Z,83.34
2018-09-23T22:49:01.334Z,83.64
2018-09-23T22:51:30.111Z,83.76
2018-09-23T22:53:58.677Z,83.65
2018-09-23T22:56:27.537Z,83.53
2018-09-23T22:58:56.167Z,83.63
2018-09-23T23:01:24.902Z,84.04
2018-09-23T23:03:53.422Z,84.07
2018-09-23T23:06:22.103Z,83.40
2018-09-23T23:08:50.610Z,84.54
2018-09-23T23:11:19.288Z,84.55
2018-09-23T23:13:48.073Z,84.42
2018-09-23T23:16:16.595Z,84.71
2018-09-23T23:18:45.446Z,85.62
2018-09-23T23:21:14.130Z,85.30
2018-09-23T23:23:42.764Z,86.05
2018-09-23T23:26:11.216Z,84.80
2018-09-23T23:28:39.667Z,85.24
2018-09-23T23:31:08.586Z,85.74
2018-09-23T23:33:37.146Z,85.42
2018-09-23T23:36:06.042Z,85.11
2018-09-23T23:38:34.548Z,86.17
2018-09-23T23:41:03.117Z,86.37
2018-09-23T23:43:31.719Z,85.89
2018-09-23T23:46:00.282Z,85.70
2018-09-23T23:48:28.997Z,85.54
2018-09-23T23:50:57.462Z,85.47
2018-09-23T23:53:26.391Z,85.38
2018-09-23T23:55:54.846Z,85.45
2018-09-23T23:58:23.640Z,85.28
